Time;durP1;ratioP1;P1;durP2;ratioP2;P2;SDS_P1;SDS_P2;PMS_P1;PMS_P2;Temp;Humidity;BMP_temperature;BMP_pressure;BME280_temperature;BME280_humidity;BME280_pressure;Samples;Min_cycle;Max_cycle;Signal;HPM_P1;HPM_P2
2023/11/21 00:01:24;;;;;;;3.47;3.17;;;7.00;99.90;;;-141.84;100.00;119224.81;5031822;28;20245;-68
2023/11/21 00:03:54;;;;;;;3.90;2.90;;;7.00;99.90;;;-141.84;100.00;119224.81;5031680;28;20241;-68
2023/11/21 00:06:22;;;;;;;4.10;3.20;;;7.00;99.90;;;-141.84;100.00;119224.81;5031823;28;20290;-68
2023/11/21 00:08:51;;;;;;;3.80;3.10;;;7.00;99.90;;;-141.84;100.00;119224.81;5032021;28;20284;-68
2023/11/21 00:11:19;;;;;;;3.40;3.10;;;6.90;99.90;;;-141.84;100.00;119224.81;5031373;28;20257;-69
2023/11/21 00:13:47;;;;;;;3.87;3.50;;;6.90;99.90;;;-141.84;100.00;119224.81;5014070;28;20230;-69
2023/11/21 00:16:18;;;;;;;3.77;3.30;;;6.90;99.90;;;-141.84;100.00;119224.81;5012117;28;20636;-69
2023/11/21 00:18:47;;;;;;;6.07;4.00;;;6.80;99.90;;;-141.84;100.00;119224.81;5011786;28;20227;-68
2023/11/21 00:21:16;;;;;;;4.80;4.23;;;6.80;99.90;;;-141.84;100.00;119224.81;5012266;28;20198;-68
2023/11/21 00:23:45;;;;;;;4.53;3.77;;;6.80;99.90;;;-141.84;100.00;119224.81;5012311;28;20203;-68
2023/11/21 00:26:14;;;;;;;5.97;4.90;;;6.80;99.90;;;-141.84;100.00;119224.81;5011478;28;20242;-68
2023/11/21 00:28:42;;;;;;;5.57;4.73;;;6.80;99.90;;;-141.84;100.00;119224.81;5011596;28;20284;-68
2023/11/21 00:31:10;;;;;;;6.37;4.63;;;6.80;99.90;;;-141.84;100.00;119224.81;5011640;28;20231;-69
2023/11/21 00:33:38;;;;;;;6.07;5.47;;;6.80;99.90;;;-141.84;100.00;119224.81;5011618;28;20226;-69
2023/11/21 00:36:09;;;;;;;8.50;6.97;;;6.80;99.90;;;-141.84;100.00;119224.81;5024482;28;20217;-67
2023/11/21 00:38:39;;;;;;;9.10;8.20;;;6.80;99.90;;;-141.84;100.00;119224.81;5031936;28;20217;-69
2023/11/21 00:41:08;;;;;;;8.83;7.43;;;6.80;99.90;;;-141.84;100.00;119224.81;5031636;28;20283;-68
2023/11/21 00:43:36;;;;;;;7.80;6.77;;;6.80;99.90;;;-141.84;100.00;119224.81;5030634;28;20362;-68
2023/11/21 00:46:07;;;;;;;6.83;5.87;;;6.80;99.90;;;-141.84;100.00;119224.81;5033169;28;20232;-69
2023/11/21 00:48:35;;;;;;;6.63;5.30;;;6.80;99.90;;;-141.84;100.00;119224.81;5034290;28;20222;-68
2023/11/21 00:51:03;;;;;;;5.37;4.87;;;6.70;99.90;;;-141.84;100.00;119224.81;5032699;28;20264;-68
2023/11/21 00:53:31;;;;;;;5.60;5.00;;;6.70;99.90;;;-141.84;100.00;119224.81;5034025;28;20707;-69
2023/11/21 00:56:02;;;;;;;6.13;4.73;;;6.70;99.90;;;-141.84;100.00;119224.81;5032052;28;20240;-68
2023/11/21 00:58:31;;;;;;;6.10;5.50;;;6.70;99.90;;;-141.84;100.00;119224.81;5031567;28;20222;-68
2023/11/21 01:00:59;;;;;;;6.13;4.90;;;6.70;99.90;;;-141.84;100.00;119224.81;5030999;28;20314;-69
2023/11/21 01:03:27;;;;;;;5.47;4.93;;;6.70;99.90;;;-141.84;100.00;119224.81;5031904;28;20232;-68
2023/11/21 01:05:55;;;;;;;5.00;4.50;;;6.80;99.90;;;-141.84;100.00;119224.81;5032031;28;20602;-68
2023/11/21 01:08:24;;;;;;;5.70;4.40;;;6.80;99.90;;;-141.84;100.00;119224.81;5046838;28;20260;-68
2023/11/21 01:10:52;;;;;;;4.57;4.13;;;6.70;99.90;;;-141.84;100.00;119224.81;5018626;28;20234;-69
2023/11/21 01:13:22;;;;;;;5.30;4.80;;;6.70;99.90;;;-141.84;100.00;119224.81;5031227;28;20236;-68
2023/11/21 01:15:50;;;;;;;8.07;5.50;;;6.70;99.90;;;-141.84;100.00;119224.81;5030476;28;20230;-68
2023/11/21 01:18:20;;;;;;;6.57;4.50;;;6.70;99.90;;;-141.84;100.00;119224.81;5030021;28;20260;-69
2023/11/21 01:20:49;;;;;;;5.03;4.50;;;6.70;99.90;;;-141.84;100.00;119224.81;5030895;28;20190;-68
2023/11/21 01:23:17;;;;;;;6.17;5.30;;;6.80;99.90;;;-141.84;100.00;119224.81;5030186;28;20710;-68
2023/11/21 01:25:45;;;;;;;7.93;5.20;;;6.90;99.90;;;-141.84;100.00;119224.81;5030086;28;20240;-68
2023/11/21 01:28:13;;;;;;;7.47;5.50;;;6.90;99.90;;;-141.84;100.00;119224.81;5030199;28;20241;-68
2023/11/21 01:30:44;;;;;;;6.40;5.07;;;7.00;99.90;;;-141.84;100.00;119224.81;5030312;28;20408;-68
2023/11/21 01:33:13;;;;;;;5.47;4.60;;;7.10;99.90;;;-141.84;100.00;119224.81;5030425;28;20285;-67
2023/11/21 01:35:45;;;;;;;6.23;5.60;;;7.20;99.90;;;-141.84;100.00;119224.81;5030608;28;20245;-68
2023/11/21 01:38:15;;;;;;;7.17;5.10;;;7.20;99.90;;;-141.84;100.00;119224.81;5030343;28;20725;-67
2023/11/21 01:40:43;;;;;;;7.13;4.63;;;7.30;99.90;;;-141.84;100.00;119224.81;5029873;28;20228;-68
2023/11/21 01:43:11;;;;;;;6.93;4.70;;;7.30;99.90;;;-141.84;100.00;119224.81;5039794;28;20217;-68
2023/11/21 01:45:40;;;;;;;4.97;4.30;;;7.30;99.90;;;-141.84;100.00;119224.81;5044329;28;20241;-68
2023/11/21 01:48:10;;;;;;;5.27;3.87;;;7.30;99.90;;;-141.84;100.00;119224.81;5022793;28;20279;-68
2023/11/21 01:50:38;;;;;;;8.20;3.87;;;7.40;99.90;;;-141.84;100.00;119224.81;5030513;28;20191;-68
2023/11/21 01:53:07;;;;;;;4.50;3.80;;;7.50;99.90;;;-141.84;100.00;119224.81;5013863;28;20305;-68
2023/11/21 01:55:36;;;;;;;5.47;4.20;;;7.50;99.90;;;-141.84;100.00;119224.81;5029564;28;20238;-68
2023/11/21 01:58:04;;;;;;;6.03;3.80;;;7.50;99.90;;;-141.84;100.00;119224.81;5029668;28;20240;-68
2023/11/21 02:00:33;;;;;;;7.17;4.70;;;7.50;99.90;;;-141.84;100.00;119224.81;5033477;28;20313;-68
2023/11/21 02:03:02;;;;;;;4.63;3.80;;;7.50;99.90;;;-141.84;100.00;119224.81;5034001;28;20696;-68
2023/11/21 02:05:32;;;;;;;5.30;3.90;;;7.70;99.90;;;-141.84;100.00;119224.81;5053773;28;20675;-68
2023/11/21 02:08:00;;;;;;;3.93;3.53;;;7.60;99.90;;;-141.84;100.00;119224.81;5037118;28;20225;-68
2023/11/21 02:10:30;;;;;;;4.80;3.40;;;7.60;99.90;;;-141.84;100.00;119224.81;5033694;28;20229;-68
2023/11/21 02:13:01;;;;;;;5.60;3.70;;;7.60;99.90;;;-141.84;100.00;119222.75;5033555;28;20597;-67
2023/11/21 02:15:30;;;;;;;4.40;3.90;;;7.70;99.90;;;-141.84;100.00;119222.75;5033715;28;20246;-68
2023/11/21 02:17:59;;;;;;;6.10;4.03;;;7.70;99.90;;;-141.84;100.00;119222.75;5034276;28;20252;-68
2023/11/21 02:20:29;;;;;;;4.70;4.00;;;7.70;99.90;;;-141.84;100.00;119222.75;5033779;28;20221;-68
2023/11/21 02:22:59;;;;;;;5.13;4.03;;;7.70;99.90;;;-141.84;100.00;118156.06;5033477;28;20309;-68
2023/11/21 02:25:30;;;;;;;5.60;3.70;;;7.70;99.90;;;-141.84;100.00;116290.06;5033252;28;20262;-68
2023/11/21 02:28:02;;;;;;;7.50;4.40;;;7.70;99.90;;;-141.84;100.00;117889.44;5033199;28;20226;-68
2023/11/21 02:30:31;;;;;;;5.40;4.30;;;7.70;99.90;;;-141.84;100.00;118956.03;5033458;28;20660;-67
2023/11/21 02:33:00;;;;;;;6.90;4.03;;;7.70;99.90;;;-141.84;100.00;118689.38;5033539;28;20206;-68
2023/11/21 02:35:30;;;;;;;5.93;4.10;;;7.80;99.90;;;-141.84;100.00;115224.16;5033640;28;20194;-67
2023/11/21 02:38:00;;;;;;;5.60;4.17;;;7.80;99.90;;;-141.84;100.00;114158.53;5033203;28;20613;-68
2023/11/21 02:40:30;;;;;;;4.73;3.53;;;7.80;99.90;;;-141.84;100.00;114158.53;5032921;28;20582;-70
2023/11/21 02:42:58;;;;;;;4.40;3.80;;;7.80;99.90;;;-141.84;100.00;113892.16;5040895;28;20278;-68
2023/11/21 02:45:27;;;;;;;6.10;3.50;;;7.80;99.90;;;-141.84;100.00;114424.91;5049205;28;20230;-68
2023/11/21 02:47:56;;;;;;;7.13;4.00;;;7.70;99.90;;;-141.84;100.00;114957.72;5026578;28;20203;-69
2023/11/21 02:50:25;;;;;;;3.90;3.40;;;7.70;99.90;;;-141.84;100.00;114957.72;5023371;28;20254;-69
2023/11/21 02:52:53;;;;;;;4.70;3.77;;;7.60;99.90;;;-141.84;100.00;117889.44;5031381;28;20279;-68
2023/11/21 02:55:24;;;;;;;6.27;3.70;;;7.50;99.90;;;-141.84;100.00;119222.75;5043772;28;20238;-68
2023/11/21 02:57:53;;;;;;;4.80;3.83;;;7.40;99.90;;;-141.84;100.00;119224.81;5045078;28;20230;-69
2023/11/21 03:00:24;;;;;;;6.13;3.60;;;7.30;99.90;;;-141.84;100.00;119224.81;5032856;28;20279;-68
2023/11/21 03:02:52;;;;;;;5.93;4.10;;;7.20;99.90;;;-141.84;100.00;119224.81;5013336;28;20222;-68
2023/11/21 03:05:21;;;;;;;4.90;3.80;;;7.10;99.90;;;-141.84;100.00;119224.81;5012993;28;20289;-67
2023/11/21 03:07:49;;;;;;;3.90;3.50;;;7.00;99.90;;;-141.84;100.00;119224.81;5022867;28;20226;-67
2023/11/21 03:10:18;;;;;;;4.37;3.97;;;7.00;99.90;;;-141.84;100.00;119224.81;5031389;28;20241;-68
2023/11/21 03:12:48;;;;;;;6.53;4.37;;;6.90;99.90;;;-141.84;100.00;119224.81;5032047;28;20234;-69
2023/11/21 03:15:17;;;;;;;6.57;4.30;;;6.90;99.90;;;-141.84;100.00;119224.81;5032737;28;20308;-68
2023/11/21 03:17:45;;;;;;;6.40;3.80;;;7.00;99.90;;;-141.84;100.00;119224.81;5033136;28;20229;-68
2023/11/21 03:20:13;;;;;;;7.77;4.10;;;7.00;99.90;;;-141.84;100.00;119224.81;5032624;28;20318;-68
2023/11/21 03:22:41;;;;;;;6.70;4.00;;;7.10;99.90;;;-141.84;100.00;119224.81;5032295;28;20230;-68
2023/11/21 03:25:11;;;;;;;5.37;3.93;;;7.10;99.90;;;-141.84;100.00;119224.81;5032450;28;20279;-67
2023/11/21 03:27:40;;;;;;;5.20;4.07;;;7.20;99.90;;;-141.84;100.00;119224.81;5032060;28;20317;-68
2023/11/21 03:30:11;;;;;;;6.70;4.20;;;7.20;99.90;;;-141.84;100.00;119224.81;5032554;28;20283;-67
2023/11/21 03:32:40;;;;;;;5.27;4.07;;;7.20;99.90;;;-141.84;100.00;119224.81;5032824;28;20198;-68
2023/11/21 03:35:09;;;;;;;4.90;3.53;;;7.30;99.90;;;-141.84;100.00;119224.81;5032044;28;20221;-68
2023/11/21 03:37:41;;;;;;;4.60;3.40;;;7.30;99.90;;;-141.84;100.00;119224.81;5032007;28;20230;-69
2023/11/21 03:40:10;;;;;;;5.47;3.73;;;7.40;99.90;;;-141.84;100.00;119224.81;5032347;28;20316;-69
2023/11/21 03:42:38;;;;;;;6.83;3.60;;;7.40;99.90;;;-141.84;100.00;119224.81;5031692;28;20717;-68
2023/11/21 03:45:10;;;;;;;5.27;3.53;;;7.40;99.90;;;-141.84;100.00;119224.81;5032279;28;20308;-68
2023/11/21 03:47:38;;;;;;;5.13;3.70;;;7.40;99.90;;;-141.84;100.00;119224.81;5032347;28;20313;-68
2023/11/21 03:50:08;;;;;;;6.43;3.50;;;7.50;99.90;;;-141.84;100.00;119224.81;5032004;28;20230;-67
2023/11/21 03:52:36;;;;;;;4.73;3.03;;;7.50;99.90;;;-141.84;100.00;119224.81;5032019;28;20233;-68
2023/11/21 03:55:05;;;;;;;5.43;3.57;;;7.50;99.90;;;-141.84;100.00;119224.81;5040499;28;20237;-68
2023/11/21 03:57:34;;;;;;;6.53;3.43;;;7.50;99.90;;;-141.84;100.00;119224.81;5046905;28;20232;-68
2023/11/21 04:00:04;;;;;;;5.43;3.80;;;7.50;99.90;;;-141.84;100.00;119224.81;5031990;28;20610;-68
2023/11/21 04:02:33;;;;;;;5.90;3.50;;;7.50;99.90;;;-141.84;100.00;119224.81;5032651;28;20285;-68
2023/11/21 04:05:01;;;;;;;4.13;3.60;;;7.50;99.90;;;-141.84;100.00;119224.81;5031848;28;20722;-68
2023/11/21 04:07:30;;;;;;;5.97;3.57;;;7.50;99.90;;;-141.84;100.00;119224.81;5031281;28;20233;-68
2023/11/21 04:09:58;;;;;;;5.87;3.43;;;7.50;99.90;;;-141.84;100.00;119224.81;5031689;28;20233;-68
2023/11/21 04:12:26;;;;;;;4.10;3.03;;;7.50;99.90;;;-141.84;100.00;119224.81;5031051;28;20222;-68
2023/11/21 04:14:54;;;;;;;6.37;3.03;;;7.50;99.90;;;-141.84;100.00;119224.81;5032138;28;20245;-68
2023/11/21 04:17:23;;;;;;;7.90;3.70;;;7.60;99.90;;;-141.84;100.00;119224.81;5031279;28;20601;-68
2023/11/21 04:19:52;;;;;;;4.97;3.07;;;7.60;99.90;;;-141.84;100.00;118956.03;5031304;28;20230;-67
2023/11/21 04:22:21;;;;;;;4.70;3.40;;;7.60;99.90;;;-141.84;100.00;118156.06;5031001;28;20234;-67
2023/11/21 04:24:50;;;;;;;5.07;3.57;;;7.60;99.90;;;-141.84;100.00;118156.06;5031390;28;20248;-68
2023/11/21 04:27:18;;;;;;;6.00;3.10;;;7.60;99.90;;;-141.84;100.00;116823.13;5030939;28;20326;-69
2023/11/21 04:29:47;;;;;;;6.10;3.10;;;7.70;99.90;;;-141.84;100.00;113359.50;5031642;28;20237;-68
2023/11/21 04:32:15;;;;;;;4.63;3.17;;;7.70;99.90;;;-141.84;100.00;114691.31;5031034;28;20226;-67
2023/11/21 04:34:43;;;;;;;6.63;3.13;;;7.70;99.90;;;-141.84;100.00;113892.16;5030889;28;20313;-69
2023/11/21 04:37:13;;;;;;;4.73;3.30;;;7.70;99.90;;;-141.84;100.00;113892.16;5031047;28;20226;-67
2023/11/21 04:39:41;;;;;;;7.73;2.67;;;7.80;99.90;;;-141.84;100.00;111495.69;5031084;28;20237;-68
2023/11/21 04:42:09;;;;;;;3.70;3.00;;;7.80;99.90;;;-141.84;100.00;113625.81;5030721;28;20241;-68
2023/11/21 04:44:37;;;;;;;6.27;3.50;;;7.80;99.90;;;-141.84;100.00;113892.16;5030993;28;20206;-68
2023/11/21 04:47:06;;;;;;;5.53;3.40;;;7.80;99.90;;;-141.84;100.00;113625.81;5030557;28;20221;-67
2023/11/21 04:49:34;;;;;;;8.47;3.57;;;7.80;99.90;;;-141.84;100.00;111495.69;5030558;28;20767;-69
2023/11/21 04:52:04;;;;;;;4.97;2.90;;;7.80;99.90;;;-141.84;100.00;112028.13;5039440;28;20231;-68
2023/11/21 04:54:34;;;;;;;8.47;3.47;;;7.90;99.90;;;-141.84;100.00;107770.63;5033507;28;20234;-68
2023/11/21 04:57:02;;;;;;;6.83;3.10;;;7.90;99.90;;;-141.84;100.00;109100.59;5014016;28;20230;-68
2023/11/21 04:59:31;;;;;;;6.30;3.10;;;7.90;99.90;;;-141.84;100.00;111495.69;5014419;28;20230;-68
2023/11/21 05:02:01;;;;;;;5.47;3.10;;;7.90;99.90;;;-141.84;100.00;113625.81;5014275;28;20325;-68
2023/11/21 05:04:29;;;;;;;5.30;3.50;;;7.90;99.90;;;-141.84;100.00;114424.91;5014173;28;20578;-68
2023/11/21 05:06:57;;;;;;;6.20;3.23;;;7.90;99.90;;;-141.84;100.00;113093.19;5015808;28;20237;-69
2023/11/21 05:09:26;;;;;;;4.43;2.80;;;7.90;99.90;;;-141.84;100.00;113093.19;5035104;28;20225;-68
2023/11/21 05:11:55;;;;;;;5.20;3.10;;;7.90;99.90;;;-141.84;100.00;112294.34;5053722;28;20224;-68
2023/11/21 05:14:24;;;;;;;4.77;3.33;;;7.90;99.90;;;-141.84;100.00;113359.50;5033905;28;20218;-68
2023/11/21 05:16:52;;;;;;;8.17;3.33;;;7.90;99.90;;;-141.84;100.00;113359.50;5032101;28;20245;-67
2023/11/21 05:19:21;;;;;;;5.33;3.50;;;8.00;99.90;;;-141.84;100.00;112560.63;5031299;28;20237;-68
2023/11/21 05:21:49;;;;;;;4.00;3.60;;;8.00;99.90;;;-141.84;100.00;112560.63;5030467;28;20280;-68
2023/11/21 05:24:17;;;;;;;7.57;4.40;;;7.90;99.90;;;-141.84;100.00;113892.16;5030117;28;20748;-67
2023/11/21 05:26:46;;;;;;;6.17;3.97;;;7.90;99.90;;;-141.84;100.00;112826.88;5030964;28;20285;-68
2023/11/21 05:29:15;;;;;;;6.40;4.20;;;8.00;99.90;;;-141.84;100.00;111761.88;5030842;28;20276;-68
2023/11/21 05:31:43;;;;;;;5.90;3.53;;;8.00;99.90;;;-141.84;100.00;112028.13;5030636;28;20324;-68
2023/11/21 05:34:12;;;;;;;6.53;3.43;;;7.90;99.90;;;-141.84;100.00;113892.16;5029174;28;20233;-68
2023/11/21 05:36:45;;;;;;;7.13;3.20;;;7.90;99.90;;;-141.84;100.00;113093.19;5030136;28;20276;-67
2023/11/21 05:39:17;;;;;;;9.80;4.10;;;7.90;99.90;;;-141.84;100.00;114957.72;5029667;28;20256;-68
2023/11/21 05:41:45;;;;;;;6.57;3.63;;;7.90;99.90;;;-141.84;100.00;113359.50;5030774;28;20691;-68
2023/11/21 05:44:18;;;;;;;7.20;4.30;;;7.90;99.90;;;-141.84;100.00;115757.06;5029815;28;20261;-68
2023/11/21 05:46:46;;;;;;;6.77;4.07;;;7.90;99.90;;;-141.84;100.00;117889.44;5030048;28;20321;-68
2023/11/21 05:49:15;;;;;;;8.30;4.17;;;7.80;99.90;;;-141.84;100.00;119222.75;5040186;28;20235;-67
2023/11/21 05:51:45;;;;;;;6.53;4.60;;;7.80;99.90;;;-141.84;100.00;119224.81;5043949;28;20218;-68
2023/11/21 05:54:13;;;;;;;7.83;4.80;;;7.80;99.90;;;-141.84;100.00;119224.81;5029846;28;20198;-68
2023/11/21 05:56:41;;;;;;;5.90;4.27;;;7.80;99.90;;;-141.84;100.00;119224.81;5030164;28;20321;-68
2023/11/21 05:59:10;;;;;;;7.73;4.23;;;7.80;99.90;;;-141.84;100.00;119222.75;5029685;28;20320;-69
2023/11/21 06:01:39;;;;;;;6.40;4.27;;;7.80;99.90;;;-141.84;100.00;119224.81;5028945;28;20238;-68
2023/11/21 06:04:08;;;;;;;6.87;4.60;;;7.80;99.90;;;-141.84;100.00;119224.81;5019318;28;20799;-68
2023/11/21 06:06:36;;;;;;;7.33;4.83;;;7.80;99.90;;;-141.84;100.00;119224.81;5030081;28;20222;-69
2023/11/21 06:09:05;;;;;;;7.07;4.17;;;7.80;99.90;;;-141.84;100.00;119224.81;5029486;28;20767;-69
2023/11/21 06:11:33;;;;;;;8.50;4.53;;;7.80;99.90;;;-141.84;100.00;119224.81;5030310;28;20206;-68
2023/11/21 06:14:07;;;;;;;8.27;4.60;;;7.70;99.90;;;-141.84;100.00;119224.81;5029499;28;20253;-70
2023/11/21 06:16:36;;;;;;;9.63;4.93;;;7.70;99.90;;;-141.84;100.00;119224.81;5029989;28;20234;-69
2023/11/21 06:19:09;;;;;;;9.33;5.17;;;7.70;99.90;;;-141.84;100.00;119224.81;5029691;28;20804;-68
2023/11/21 06:21:39;;;;;;;7.20;5.00;;;7.70;99.90;;;-141.84;100.00;119224.81;5030025;28;20225;-68
2023/11/21 06:24:08;;;;;;;9.40;5.80;;;7.70;99.90;;;-141.84;100.00;119224.81;5029489;28;20202;-68
2023/11/21 06:26:36;;;;;;;9.03;5.03;;;7.70;99.90;;;-141.84;100.00;119224.81;5030337;28;20283;-68
2023/11/21 06:29:04;;;;;;;9.07;5.23;;;7.80;99.90;;;-141.84;100.00;119224.81;5029405;28;20226;-68
2023/11/21 06:31:33;;;;;;;8.17;5.00;;;7.70;99.90;;;-141.84;100.00;119224.81;5029297;28;20636;-68
2023/11/21 06:34:01;;;;;;;9.57;5.90;;;7.70;99.90;;;-141.84;100.00;119224.81;5029559;28;20308;-68
2023/11/21 06:36:30;;;;;;;10.10;6.67;;;7.70;99.90;;;-141.84;100.00;119224.81;5047821;28;20709;-68
2023/11/21 06:38:59;;;;;;;12.60;6.50;;;7.70;99.90;;;-141.84;100.00;119224.81;5050067;28;20233;-68
2023/11/21 06:41:27;;;;;;;11.07;6.60;;;7.70;99.90;;;-141.84;100.00;119224.81;5029816;28;20301;-68
2023/11/21 06:43:55;;;;;;;9.53;5.83;;;7.70;99.90;;;-141.84;100.00;119224.81;5029300;28;20244;-69
2023/11/21 06:46:23;;;;;;;17.53;7.33;;;7.60;99.90;;;-141.84;100.00;119224.81;5036027;28;20218;-69
2023/11/21 06:48:52;;;;;;;13.67;6.97;;;7.70;99.90;;;-141.84;100.00;119224.81;5037878;28;20229;-69
2023/11/21 06:51:20;;;;;;;10.30;6.90;;;7.70;99.90;;;-141.84;100.00;119224.81;5052938;28;20593;-68
2023/11/21 06:53:49;;;;;;;12.40;7.77;;;7.70;99.90;;;-141.84;100.00;119224.81;5053262;28;20611;-69
2023/11/21 06:56:18;;;;;;;12.80;7.27;;;7.70;99.90;;;-141.84;100.00;119224.81;5052543;28;20306;-70
2023/11/21 06:58:47;;;;;;;12.70;7.73;;;7.70;99.90;;;-141.84;100.00;119224.81;5052703;28;20222;-67
2023/11/21 07:01:15;;;;;;;13.87;7.37;;;7.70;99.90;;;-141.84;100.00;119224.81;5052613;28;20300;-68
2023/11/21 07:03:43;;;;;;;12.00;7.67;;;7.70;99.90;;;-141.84;100.00;119224.81;5046575;28;20271;-68
2023/11/21 07:06:12;;;;;;;12.67;7.60;;;7.70;99.90;;;-141.84;100.00;119224.81;5032497;28;20204;-68
2023/11/21 07:08:42;;;;;;;10.83;7.23;;;7.70;99.90;;;-141.84;100.00;119224.81;5033102;28;20217;-68
2023/11/21 07:11:12;;;;;;;13.27;8.17;;;7.70;99.90;;;-141.84;100.00;119224.81;5021262;28;20226;-68
2023/11/21 07:13:40;;;;;;;13.67;7.90;;;7.70;99.90;;;-141.84;100.00;119224.81;5044375;28;20451;-68
2023/11/21 07:16:10;;;;;;;12.30;8.13;;;7.70;99.90;;;-141.84;100.00;119224.81;5052266;28;20659;-68
2023/11/21 07:18:38;;;;;;;10.53;7.70;;;7.70;99.90;;;-141.84;100.00;119224.81;5047315;28;20225;-67
2023/11/21 07:21:08;;;;;;;13.30;8.87;;;7.80;99.90;;;-141.84;100.00;119224.81;5032244;28;20194;-67
2023/11/21 07:23:36;;;;;;;13.97;8.93;;;7.80;99.90;;;-141.84;100.00;119224.81;5033440;28;20289;-68
2023/11/21 07:26:08;;;;;;;20.93;11.77;;;7.80;99.90;;;-141.84;100.00;119224.81;5030291;28;20265;-70
2023/11/21 07:28:38;;;;;;;21.03;13.63;;;7.80;99.90;;;-141.84;100.00;119224.81;5043035;28;20640;-70
2023/11/21 07:31:06;;;;;;;19.13;12.83;;;7.90;99.90;;;-141.84;100.00;119224.81;5049251;28;20228;-69
2023/11/21 07:33:35;;;;;;;32.33;15.00;;;7.90;99.90;;;-141.84;100.00;119224.81;5049694;28;20268;-69
2023/11/21 07:36:03;;;;;;;25.33;15.43;;;7.90;99.90;;;-141.84;100.00;119224.81;5048761;28;20724;-70
2023/11/21 07:38:33;;;;;;;23.37;14.73;;;8.00;99.90;;;-141.84;100.00;119224.81;5029609;28;20198;-70
2023/11/21 07:41:02;;;;;;;24.63;15.23;;;8.00;99.90;;;-141.84;100.00;119224.81;5044919;28;20225;-69
2023/11/21 07:43:34;;;;;;;23.17;14.30;;;8.00;99.90;;;-141.84;100.00;119224.81;5036565;28;20229;-70
2023/11/21 07:46:05;;;;;;;19.50;13.27;;;8.10;99.90;;;-141.84;100.00;119224.81;5029297;28;20797;-70
2023/11/21 07:48:34;;;;;;;20.53;12.40;;;8.10;99.90;;;-141.84;100.00;119224.81;5029348;28;20312;-70
2023/11/21 07:51:04;;;;;;;21.47;13.03;;;8.20;99.90;;;-141.84;100.00;119224.81;5029151;28;20639;-70
2023/11/21 07:53:32;;;;;;;17.03;12.23;;;8.20;99.90;;;-141.84;100.00;119224.81;5029824;28;20206;-69
2023/11/21 07:56:05;;;;;;;17.53;11.17;;;8.20;99.90;;;-141.84;100.00;119224.81;5028813;28;20271;-70
2023/11/21 07:58:33;;;;;;;14.83;11.53;;;8.20;99.90;;;-141.84;100.00;119224.81;5028859;28;20225;-69
2023/11/21 08:01:03;;;;;;;16.23;11.80;;;8.30;99.90;;;-141.84;100.00;119224.81;5029623;28;20283;-73
2023/11/21 08:03:32;;;;;;;16.70;12.10;;;8.20;99.90;;;-141.84;100.00;119224.81;5034757;28;20493;-72
2023/11/21 08:06:02;;;;;;;16.30;12.00;;;8.20;99.90;;;-141.84;100.00;119224.81;5049081;28;20206;-73
2023/11/21 08:08:32;;;;;;;15.30;11.77;;;8.20;99.90;;;-141.84;100.00;119224.81;5049096;28;20209;-73
2023/11/21 08:11:01;;;;;;;16.57;11.63;;;8.20;99.90;;;-141.84;100.00;119224.81;5032035;28;20264;-73
2023/11/21 08:13:30;;;;;;;13.67;10.10;;;8.10;99.90;;;-141.84;100.00;119224.81;5027791;28;20233;-71
2023/11/21 08:16:02;;;;;;;12.40;9.37;;;8.10;99.90;;;-141.84;100.00;119224.81;5034525;28;20272;-73
2023/11/21 08:18:32;;;;;;;11.13;9.07;;;8.20;99.90;;;-141.84;100.00;119224.81;5048621;28;20221;-72
2023/11/21 08:21:01;;;;;;;12.30;9.07;;;8.10;99.90;;;-141.84;100.00;119224.81;5049354;28;20232;-73
2023/11/21 08:23:29;;;;;;;11.97;8.43;;;8.20;99.90;;;-141.84;100.00;119224.81;5049131;28;20701;-72
2023/11/21 08:25:57;;;;;;;12.97;8.83;;;8.20;99.90;;;-141.84;100.00;119224.81;5048360;28;20793;-72
2023/11/21 08:28:26;;;;;;;11.20;8.13;;;8.20;99.90;;;-141.84;100.00;119224.81;5049636;28;20308;-73
2023/11/21 08:30:55;;;;;;;11.00;8.57;;;8.20;99.90;;;-141.84;100.00;119224.81;5051165;28;20235;-73
2023/11/21 08:33:23;;;;;;;11.30;7.93;;;8.10;99.90;;;-141.84;100.00;119224.81;5047738;28;20300;-73
2023/11/21 08:35:53;;;;;;;10.33;7.73;;;8.10;99.90;;;-141.84;100.00;118422.72;5031438;28;20614;-72
2023/11/21 08:38:21;;;;;;;10.20;7.27;;;8.20;99.90;;;-141.84;100.00;118956.03;5030844;28;20280;-71
2023/11/21 08:40:49;;;;;;;8.83;6.40;;;8.10;99.90;;;-141.84;100.00;116556.59;5030850;28;20276;-73
2023/11/21 08:43:19;;;;;;;8.53;7.17;;;8.10;99.90;;;-141.84;100.00;114424.91;5030678;28;20234;-72
2023/11/21 08:45:48;;;;;;;7.57;6.23;;;8.20;99.90;;;-141.84;100.00;116023.56;5030999;28;20280;-72
2023/11/21 08:48:16;;;;;;;8.30;6.40;;;8.00;99.90;;;-141.84;100.00;116823.13;5031047;28;20202;-72
2023/11/21 08:50:44;;;;;;;7.17;6.30;;;8.10;99.90;;;-141.84;100.00;114424.91;5031510;28;20225;-72
2023/11/21 08:53:14;;;;;;;7.73;6.37;;;8.10;99.90;;;-141.84;100.00;114424.91;5030251;28;20252;-72
2023/11/21 08:55:43;;;;;;;9.67;6.70;;;8.10;99.90;;;-141.84;100.00;114691.31;5030174;28;20317;-72
2023/11/21 08:58:12;;;;;;;8.17;6.33;;;8.10;99.90;;;-141.84;100.00;117089.69;5030469;28;20288;-72
2023/11/21 09:00:41;;;;;;;7.87;6.70;;;8.00;99.90;;;-141.84;100.00;116823.13;5030487;28;20674;-73
2023/11/21 09:03:09;;;;;;;8.03;6.60;;;8.10;99.90;;;-141.84;100.00;115757.06;5030769;28;20666;-72
2023/11/21 09:05:39;;;;;;;8.33;6.83;;;8.20;99.90;;;-141.84;100.00;114691.31;5030870;28;20285;-72
2023/11/21 09:08:08;;;;;;;9.20;7.47;;;8.20;99.90;;;-141.84;100.00;114691.31;5030419;28;20225;-72
2023/11/21 09:10:37;;;;;;;8.73;7.43;;;8.20;99.90;;;-141.84;100.00;115757.06;5030125;28;20249;-72
2023/11/21 09:13:05;;;;;;;8.97;7.10;;;8.00;99.90;;;-141.84;100.00;117356.25;5039142;28;20229;-73
2023/11/21 09:15:34;;;;;;;8.07;6.73;;;8.00;99.90;;;-141.84;100.00;117089.69;5045668;28;20241;-73
2023/11/21 09:18:02;;;;;;;9.23;7.07;;;7.90;99.90;;;-141.84;100.00;116023.56;5030786;28;20202;-70
2023/11/21 09:20:30;;;;;;;8.57;7.13;;;8.00;99.90;;;-141.84;100.00;111229.50;5050918;28;20202;-73
2023/11/21 09:22:58;;;;;;;10.57;7.30;;;8.10;99.90;;;-141.84;100.00;114158.53;5049917;28;20304;-72
2023/11/21 09:25:28;;;;;;;10.57;7.83;;;8.10;99.90;;;-141.84;100.00;114691.31;5050181;28;20226;-73
2023/11/21 09:27:58;;;;;;;10.53;7.27;;;8.10;99.90;;;-141.84;100.00;115757.06;5050817;28;20279;-71
2023/11/21 09:30:26;;;;;;;9.37;7.53;;;8.00;99.90;;;-141.84;100.00;108834.56;5050310;28;20319;-72
2023/11/21 09:32:54;;;;;;;9.93;7.77;;;8.10;99.90;;;-141.84;100.00;105111.94;5030465;28;20297;-72
2023/11/21 09:35:24;;;;;;;10.57;7.53;;;8.20;99.90;;;-141.84;100.00;101923.81;5036746;28;20221;-73
2023/11/21 09:37:52;;;;;;;9.83;7.93;;;8.20;99.90;;;-141.84;100.00;106441.06;5034891;28;20226;-73
2023/11/21 09:40:23;;;;;;;10.40;7.17;;;8.20;99.90;;;-141.84;100.00;109898.81;5030043;28;20620;-73
2023/11/21 09:42:58;;;;;;;9.03;7.37;;;8.10;99.90;;;-141.84;100.00;111229.50;5029932;28;20222;-73
2023/11/21 09:45:28;;;;;;;10.60;7.87;;;8.20;99.90;;;-141.84;100.00;110697.16;5029958;28;20782;-73
2023/11/21 09:47:57;;;;;;;8.40;7.00;;;8.20;99.90;;;-141.84;100.00;110963.31;5030650;28;20182;-73
2023/11/21 09:50:27;;;;;;;7.77;6.43;;;8.20;99.90;;;-141.84;100.00;108834.56;5030188;28;20233;-73
2023/11/21 09:53:04;;;;;;;6.40;5.43;;;8.10;99.90;;;-141.84;100.00;100330.69;5029558;28;20672;-73
2023/11/21 09:55:36;;;;;;;5.30;4.43;;;8.10;99.90;;;-141.84;100.00;96350.63;5029864;28;20233;-73
2023/11/21 09:58:07;;;;;;;5.57;4.20;;;8.10;99.90;;;-141.84;100.00;97942.19;5030042;28;20648;-72
2023/11/21 10:00:36;;;;;;;5.70;4.60;;;8.00;99.90;;;-141.84;100.00;83112.00;5029957;28;20308;-73
2023/11/21 10:03:04;;;;;;;5.00;3.90;;;8.00;99.90;;;-141.84;100.00;79941.19;5029930;28;20650;-72
2023/11/21 10:05:34;;;;;;;5.17;4.10;;;8.00;99.90;;;-141.84;100.00;82319.06;5030471;28;20292;-72